< < Back
Terminal Aerodrome Forecast


Current Version              Previous Versions:   1  2  3  4  5  6  7  8  9  

Terminal Aerodrome Forecast

935
FTUS42 KFFC 241725
TAFCSG
TAF
KCSG 241725Z 2418/2518 27010KT P6SM SCT050
     FM250000 25005KT P6SM FEW060 SCT250
     FM251400 29005KT P6SM FEW070 BKN250=

Latest METAR

962
SAUS70 KWBC 242000 RRA
MTRCSG
METAR KCSG 241951Z 29009KT 10SM SCT060 SCT080 35/19 A3003 RMK AO2 SLP163
T03500189


USA.gov is the U.S. government's official web portal to all federal, state and local government web resources and services.